sensor_id;sensor_type;location;lat;lon;timestamp;P1;durP1;ratioP1;P2;durP2;ratioP2
69629;SDS011;56857;52.212;5.496;2024-01-27T00:01:49;18.35;;;3.78;;
69629;SDS011;56857;52.212;5.496;2024-01-27T00:04:15;19.55;;;5.00;;
69629;SDS011;56857;52.212;5.496;2024-01-27T00:06:40;15.48;;;4.20;;
69629;SDS011;56857;52.212;5.496;2024-01-27T00:09:05;15.65;;;4.63;;
69629;SDS011;56857;52.212;5.496;2024-01-27T00:11:31;22.03;;;6.33;;
69629;SDS011;56857;52.212;5.496;2024-01-27T00:13:56;18.20;;;6.35;;
69629;SDS011;56857;52.212;5.496;2024-01-27T00:16:22;22.15;;;7.15;;
69629;SDS011;56857;52.212;5.496;2024-01-27T00:18:47;20.58;;;6.35;;
69629;SDS011;56857;52.212;5.496;2024-01-27T00:21:13;19.85;;;6.93;;
69629;SDS011;56857;52.212;5.496;2024-01-27T00:23:38;20.23;;;5.75;;
69629;SDS011;56857;52.212;5.496;2024-01-27T00:26:03;17.60;;;4.63;;
69629;SDS011;56857;52.212;5.496;2024-01-27T00:28:30;18.63;;;4.63;;
69629;SDS011;56857;52.212;5.496;2024-01-27T00:30:55;15.95;;;4.78;;
69629;SDS011;56857;52.212;5.496;2024-01-27T00:33:21;14.85;;;5.82;;
69629;SDS011;56857;52.212;5.496;2024-01-27T00:35:47;13.52;;;3.92;;
69629;SDS011;56857;52.212;5.496;2024-01-27T00:38:12;16.35;;;4.70;;
69629;SDS011;56857;52.212;5.496;2024-01-27T00:40:37;14.85;;;4.05;;
69629;SDS011;56857;52.212;5.496;2024-01-27T00:43:03;17.17;;;4.22;;
69629;SDS011;56857;52.212;5.496;2024-01-27T00:45:29;18.65;;;5.03;;
69629;SDS011;56857;52.212;5.496;2024-01-27T00:47:54;24.73;;;5.87;;
69629;SDS011;56857;52.212;5.496;2024-01-27T00:50:19;19.13;;;3.95;;
69629;SDS011;56857;52.212;5.496;2024-01-27T00:52:45;14.43;;;3.65;;
69629;SDS011;56857;52.212;5.496;2024-01-27T00:55:10;12.10;;;4.20;;
69629;SDS011;56857;52.212;5.496;2024-01-27T00:57:36;15.67;;;3.83;;
69629;SDS011;56857;52.212;5.496;2024-01-27T01:00:01;20.27;;;4.93;;
69629;SDS011;56857;52.212;5.496;2024-01-27T01:02:27;15.07;;;3.35;;
69629;SDS011;56857;52.212;5.496;2024-01-27T01:04:52;15.03;;;4.83;;
69629;SDS011;56857;52.212;5.496;2024-01-27T01:07:17;14.27;;;4.13;;
69629;SDS011;56857;52.212;5.496;2024-01-27T01:09:43;21.05;;;4.65;;
69629;SDS011;56857;52.212;5.496;2024-01-27T01:12:08;15.57;;;4.27;;
69629;SDS011;56857;52.212;5.496;2024-01-27T01:14:33;12.60;;;3.75;;
69629;SDS011;56857;52.212;5.496;2024-01-27T01:16:59;14.37;;;4.10;;
69629;SDS011;56857;52.212;5.496;2024-01-27T01:19:24;12.27;;;3.90;;
69629;SDS011;56857;52.212;5.496;2024-01-27T01:21:49;12.73;;;3.77;;
69629;SDS011;56857;52.212;5.496;2024-01-27T01:24:15;17.17;;;4.10;;
69629;SDS011;56857;52.212;5.496;2024-01-27T01:26:40;15.13;;;4.10;;
69629;SDS011;56857;52.212;5.496;2024-01-27T01:29:06;12.25;;;4.25;;
69629;SDS011;56857;52.212;5.496;2024-01-27T01:31:32;13.38;;;3.30;;
69629;SDS011;56857;52.212;5.496;2024-01-27T01:33:57;17.15;;;3.80;;
69629;SDS011;56857;52.212;5.496;2024-01-27T01:36:22;20.48;;;3.90;;
69629;SDS011;56857;52.212;5.496;2024-01-27T01:38:48;14.90;;;3.45;;
69629;SDS011;56857;52.212;5.496;2024-01-27T01:41:13;13.20;;;4.30;;
69629;SDS011;56857;52.212;5.496;2024-01-27T01:43:40;12.00;;;3.50;;
69629;SDS011;56857;52.212;5.496;2024-01-27T01:46:05;10.82;;;3.70;;
69629;SDS011;56857;52.212;5.496;2024-01-27T01:48:30;15.35;;;3.80;;
69629;SDS011;56857;52.212;5.496;2024-01-27T01:50:56;18.08;;;3.85;;
69629;SDS011;56857;52.212;5.496;2024-01-27T01:53:23;11.95;;;3.47;;
69629;SDS011;56857;52.212;5.496;2024-01-27T01:55:49;12.82;;;3.60;;
69629;SDS011;56857;52.212;5.496;2024-01-27T01:58:14;16.67;;;4.47;;
69629;SDS011;56857;52.212;5.496;2024-01-27T02:00:39;21.90;;;4.28;;
69629;SDS011;56857;52.212;5.496;2024-01-27T02:03:05;14.93;;;3.47;;
69629;SDS011;56857;52.212;5.496;2024-01-27T02:05:30;18.25;;;3.75;;
69629;SDS011;56857;52.212;5.496;2024-01-27T02:07:56;15.20;;;5.25;;
69629;SDS011;56857;52.212;5.496;2024-01-27T02:10:21;15.77;;;3.63;;
69629;SDS011;56857;52.212;5.496;2024-01-27T02:12:47;12.43;;;4.22;;
69629;SDS011;56857;52.212;5.496;2024-01-27T02:15:12;14.20;;;3.70;;
69629;SDS011;56857;52.212;5.496;2024-01-27T02:17:38;12.63;;;3.78;;
69629;SDS011;56857;52.212;5.496;2024-01-27T02:20:06;20.38;;;4.05;;
69629;SDS011;56857;52.212;5.496;2024-01-27T02:22:32;15.27;;;4.40;;
69629;SDS011;56857;52.212;5.496;2024-01-27T02:24:58;17.08;;;4.20;;
69629;SDS011;56857;52.212;5.496;2024-01-27T02:27:24;13.27;;;3.63;;
69629;SDS011;56857;52.212;5.496;2024-01-27T02:29:49;15.65;;;3.38;;
69629;SDS011;56857;52.212;5.496;2024-01-27T02:32:15;13.18;;;3.35;;
69629;SDS011;56857;52.212;5.496;2024-01-27T02:34:40;15.57;;;4.38;;
69629;SDS011;56857;52.212;5.496;2024-01-27T02:37:05;16.40;;;5.07;;
69629;SDS011;56857;52.212;5.496;2024-01-27T02:39:30;16.65;;;3.80;;
69629;SDS011;56857;52.212;5.496;2024-01-27T02:41:57;12.67;;;3.53;;
69629;SDS011;56857;52.212;5.496;2024-01-27T02:44:22;13.45;;;3.78;;
69629;SDS011;56857;52.212;5.496;2024-01-27T02:46:48;14.77;;;3.90;;
69629;SDS011;56857;52.212;5.496;2024-01-27T02:49:13;10.27;;;3.03;;
69629;SDS011;56857;52.212;5.496;2024-01-27T02:51:38;16.70;;;3.77;;
69629;SDS011;56857;52.212;5.496;2024-01-27T02:54:04;11.45;;;3.00;;
69629;SDS011;56857;52.212;5.496;2024-01-27T02:56:29;13.07;;;3.95;;
69629;SDS011;56857;52.212;5.496;2024-01-27T02:58:54;16.23;;;3.45;;
69629;SDS011;56857;52.212;5.496;2024-01-27T03:01:20;13.57;;;3.25;;
69629;SDS011;56857;52.212;5.496;2024-01-27T03:03:45;13.33;;;3.20;;
69629;SDS011;56857;52.212;5.496;2024-01-27T03:06:10;14.55;;;3.40;;
69629;SDS011;56857;52.212;5.496;2024-01-27T03:08:36;14.27;;;3.70;;
69629;SDS011;56857;52.212;5.496;2024-01-27T03:11:01;12.25;;;3.17;;
69629;SDS011;56857;52.212;5.496;2024-01-27T03:13:30;11.75;;;3.10;;
69629;SDS011;56857;52.212;5.496;2024-01-27T03:15:55;14.73;;;3.97;;
69629;SDS011;56857;52.212;5.496;2024-01-27T03:18:20;16.77;;;3.38;;
69629;SDS011;56857;52.212;5.496;2024-01-27T03:20:46;11.73;;;4.47;;
69629;SDS011;56857;52.212;5.496;2024-01-27T03:23:11;12.13;;;3.35;;
69629;SDS011;56857;52.212;5.496;2024-01-27T03:25:36;11.95;;;3.38;;
69629;SDS011;56857;52.212;5.496;2024-01-27T03:28:01;13.10;;;3.03;;
69629;SDS011;56857;52.212;5.496;2024-01-27T03:30:27;16.60;;;3.85;;
69629;SDS011;56857;52.212;5.496;2024-01-27T03:32:52;14.13;;;3.17;;
69629;SDS011;56857;52.212;5.496;2024-01-27T03:35:18;13.55;;;3.13;;
69629;SDS011;56857;52.212;5.496;2024-01-27T03:37:43;11.68;;;2.80;;
69629;SDS011;56857;52.212;5.496;2024-01-27T03:40:09;14.27;;;3.30;;
69629;SDS011;56857;52.212;5.496;2024-01-27T03:42:34;11.80;;;3.03;;
69629;SDS011;56857;52.212;5.496;2024-01-27T03:45:00;14.53;;;3.33;;
69629;SDS011;56857;52.212;5.496;2024-01-27T03:47:25;12.63;;;3.08;;
69629;SDS011;56857;52.212;5.496;2024-01-27T03:49:50;17.35;;;3.25;;
69629;SDS011;56857;52.212;5.496;2024-01-27T03:52:15;14.80;;;3.45;;
69629;SDS011;56857;52.212;5.496;2024-01-27T03:54:41;11.70;;;3.42;;
69629;SDS011;56857;52.212;5.496;2024-01-27T03:57:06;10.50;;;2.93;;
69629;SDS011;56857;52.212;5.496;2024-01-27T03:59:31;17.88;;;3.20;;
69629;SDS011;56857;52.212;5.496;2024-01-27T04:01:57;11.87;;;3.47;;
69629;SDS011;56857;52.212;5.496;2024-01-27T04:04:22;13.23;;;3.10;;
69629;SDS011;56857;52.212;5.496;2024-01-27T04:06:47;12.03;;;3.33;;
69629;SDS011;56857;52.212;5.496;2024-01-27T04:09:13;15.75;;;4.50;;
69629;SDS011;56857;52.212;5.496;2024-01-27T04:11:38;15.60;;;3.20;;
69629;SDS011;56857;52.212;5.496;2024-01-27T04:14:04;9.30;;;3.08;;
69629;SDS011;56857;52.212;5.496;2024-01-27T04:16:30;10.65;;;3.05;;
69629;SDS011;56857;52.212;5.496;2024-01-27T04:18:55;13.63;;;2.90;;
69629;SDS011;56857;52.212;5.496;2024-01-27T04:21:21;16.20;;;4.10;;
69629;SDS011;56857;52.212;5.496;2024-01-27T04:23:47;11.20;;;3.47;;
69629;SDS011;56857;52.212;5.496;2024-01-27T04:26:12;13.82;;;3.20;;
69629;SDS011;56857;52.212;5.496;2024-01-27T04:28:38;12.38;;;3.60;;
69629;SDS011;56857;52.212;5.496;2024-01-27T04:31:03;17.05;;;3.50;;
69629;SDS011;56857;52.212;5.496;2024-01-27T04:33:29;16.48;;;4.25;;
69629;SDS011;56857;52.212;5.496;2024-01-27T04:35:54;14.77;;;3.80;;
69629;SDS011;56857;52.212;5.496;2024-01-27T04:40:45;11.77;;;4.17;;
69629;SDS011;56857;52.212;5.496;2024-01-27T04:43:14;11.25;;;3.78;;
69629;SDS011;56857;52.212;5.496;2024-01-27T04:48:08;11.20;;;3.85;;
69629;SDS011;56857;52.212;5.496;2024-01-27T04:50:34;14.15;;;4.82;;
69629;SDS011;56857;52.212;5.496;2024-01-27T04:53:00;13.07;;;4.10;;
69629;SDS011;56857;52.212;5.496;2024-01-27T04:55:25;12.85;;;4.43;;
69629;SDS011;56857;52.212;5.496;2024-01-27T04:57:50;15.50;;;4.80;;
69629;SDS011;56857;52.212;5.496;2024-01-27T05:00:15;14.77;;;4.78;;
69629;SDS011;56857;52.212;5.496;2024-01-27T05:02:41;16.45;;;5.03;;
69629;SDS011;56857;52.212;5.496;2024-01-27T05:05:07;13.30;;;4.80;;
69629;SDS011;56857;52.212;5.496;2024-01-27T05:07:33;16.48;;;5.00;;
69629;SDS011;56857;52.212;5.496;2024-01-27T05:09:59;19.55;;;5.65;;
69629;SDS011;56857;52.212;5.496;2024-01-27T05:12:24;15.63;;;6.72;;
69629;SDS011;56857;52.212;5.496;2024-01-27T05:14:50;18.08;;;5.72;;
69629;SDS011;56857;52.212;5.496;2024-01-27T05:17:15;17.23;;;5.77;;
69629;SDS011;56857;52.212;5.496;2024-01-27T05:19:40;15.75;;;5.57;;
69629;SDS011;56857;52.212;5.496;2024-01-27T05:22:06;17.53;;;5.87;;
69629;SDS011;56857;52.212;5.496;2024-01-27T05:24:31;16.05;;;6.38;;
69629;SDS011;56857;52.212;5.496;2024-01-27T05:26:56;14.17;;;6.33;;
69629;SDS011;56857;52.212;5.496;2024-01-27T05:29:22;18.20;;;7.18;;
69629;SDS011;56857;52.212;5.496;2024-01-27T05:31:47;20.00;;;7.53;;
69629;SDS011;56857;52.212;5.496;2024-01-27T05:34:13;18.65;;;6.90;;
69629;SDS011;56857;52.212;5.496;2024-01-27T05:36:38;13.40;;;6.63;;
69629;SDS011;56857;52.212;5.496;2024-01-27T05:39:03;15.18;;;6.15;;
69629;SDS011;56857;52.212;5.496;2024-01-27T05:41:29;15.90;;;7.10;;
69629;SDS011;56857;52.212;5.496;2024-01-27T05:43:54;26.40;;;7.47;;
69629;SDS011;56857;52.212;5.496;2024-01-27T05:46:20;14.83;;;6.47;;
69629;SDS011;56857;52.212;5.496;2024-01-27T05:51:11;14.85;;;5.63;;
69629;SDS011;56857;52.212;5.496;2024-01-27T05:53:36;15.07;;;6.47;;
69629;SDS011;56857;52.212;5.496;2024-01-27T05:56:01;12.23;;;5.80;;
69629;SDS011;56857;52.212;5.496;2024-01-27T05:58:26;13.45;;;6.35;;
69629;SDS011;56857;52.212;5.496;2024-01-27T06:00:52;21.13;;;7.50;;
69629;SDS011;56857;52.212;5.496;2024-01-27T06:03:17;15.85;;;7.05;;
69629;SDS011;56857;52.212;5.496;2024-01-27T06:05:43;15.37;;;6.73;;
69629;SDS011;56857;52.212;5.496;2024-01-27T06:08:08;17.00;;;7.05;;
69629;SDS011;56857;52.212;5.496;2024-01-27T06:10:34;15.98;;;6.28;;
69629;SDS011;56857;52.212;5.496;2024-01-27T06:12:59;21.15;;;6.68;;
69629;SDS011;56857;52.212;5.496;2024-01-27T06:15:25;15.07;;;6.87;;
69629;SDS011;56857;52.212;5.496;2024-01-27T06:17:50;12.48;;;6.43;;
69629;SDS011;56857;52.212;5.496;2024-01-27T06:20:15;20.85;;;6.88;;
69629;SDS011;56857;52.212;5.496;2024-01-27T06:22:41;22.88;;;8.07;;
69629;SDS011;56857;52.212;5.496;2024-01-27T06:25:07;13.97;;;6.63;;
69629;SDS011;56857;52.212;5.496;2024-01-27T06:27:33;15.90;;;6.93;;
69629;SDS011;56857;52.212;5.496;2024-01-27T06:29:58;19.10;;;7.00;;
69629;SDS011;56857;52.212;5.496;2024-01-27T06:34:49;16.73;;;6.70;;
69629;SDS011;56857;52.212;5.496;2024-01-27T06:37:14;15.85;;;7.25;;
69629;SDS011;56857;52.212;5.496;2024-01-27T06:39:39;19.90;;;7.88;;
69629;SDS011;56857;52.212;5.496;2024-01-27T06:42:05;21.20;;;7.80;;
69629;SDS011;56857;52.212;5.496;2024-01-27T06:44:30;17.55;;;7.78;;
69629;SDS011;56857;52.212;5.496;2024-01-27T06:46:55;18.90;;;7.75;;
69629;SDS011;56857;52.212;5.496;2024-01-27T06:49:21;19.23;;;7.70;;
69629;SDS011;56857;52.212;5.496;2024-01-27T06:54:11;19.97;;;9.57;;
69629;SDS011;56857;52.212;5.496;2024-01-27T06:56:37;21.80;;;10.38;;
69629;SDS011;56857;52.212;5.496;2024-01-27T06:59:02;20.67;;;10.05;;
69629;SDS011;56857;52.212;5.496;2024-01-27T07:03:53;21.48;;;9.32;;
69629;SDS011;56857;52.212;5.496;2024-01-27T07:06:18;22.17;;;9.40;;
69629;SDS011;56857;52.212;5.496;2024-01-27T07:08:43;19.90;;;8.85;;
69629;SDS011;56857;52.212;5.496;2024-01-27T07:11:09;16.83;;;8.25;;
69629;SDS011;56857;52.212;5.496;2024-01-27T07:13:34;18.83;;;8.00;;
69629;SDS011;56857;52.212;5.496;2024-01-27T07:15:59;20.67;;;8.70;;
69629;SDS011;56857;52.212;5.496;2024-01-27T07:18:25;20.15;;;7.80;;
69629;SDS011;56857;52.212;5.496;2024-01-27T07:20:50;19.20;;;7.90;;
69629;SDS011;56857;52.212;5.496;2024-01-27T07:25:41;17.70;;;7.80;;
69629;SDS011;56857;52.212;5.496;2024-01-27T07:28:06;17.73;;;8.15;;
69629;SDS011;56857;52.212;5.496;2024-01-27T07:30:31;19.33;;;8.47;;
69629;SDS011;56857;52.212;5.496;2024-01-27T07:35:22;16.80;;;8.70;;
69629;SDS011;56857;52.212;5.496;2024-01-27T07:37:47;19.13;;;8.45;;
69629;SDS011;56857;52.212;5.496;2024-01-27T07:40:13;21.58;;;9.25;;
69629;SDS011;56857;52.212;5.496;2024-01-27T07:42:38;13.85;;;8.77;;
69629;SDS011;56857;52.212;5.496;2024-01-27T07:45:04;20.70;;;9.63;;
69629;SDS011;56857;52.212;5.496;2024-01-27T07:47:30;20.00;;;8.70;;
69629;SDS011;56857;52.212;5.496;2024-01-27T07:49:55;15.77;;;8.65;;
69629;SDS011;56857;52.212;5.496;2024-01-27T07:52:20;22.65;;;10.02;;
69629;SDS011;56857;52.212;5.496;2024-01-27T07:54:46;19.85;;;8.73;;
69629;SDS011;56857;52.212;5.496;2024-01-27T07:57:11;18.98;;;9.10;;
69629;SDS011;56857;52.212;5.496;2024-01-27T07:59:37;21.42;;;9.88;;
69629;SDS011;56857;52.212;5.496;2024-01-27T08:02:02;22.55;;;10.43;;
69629;SDS011;56857;52.212;5.496;2024-01-27T08:04:27;22.92;;;11.63;;
69629;SDS011;56857;52.212;5.496;2024-01-27T08:06:53;18.30;;;9.45;;
69629;SDS011;56857;52.212;5.496;2024-01-27T08:09:18;20.45;;;10.38;;
69629;SDS011;56857;52.212;5.496;2024-01-27T08:11:44;20.55;;;9.73;;
69629;SDS011;56857;52.212;5.496;2024-01-27T08:14:10;19.52;;;9.82;;
69629;SDS011;56857;52.212;5.496;2024-01-27T08:16:35;19.08;;;9.80;;
69629;SDS011;56857;52.212;5.496;2024-01-27T08:19:00;17.85;;;9.82;;
69629;SDS011;56857;52.212;5.496;2024-01-27T08:21:26;16.23;;;10.13;;
69629;SDS011;56857;52.212;5.496;2024-01-27T08:23:52;22.48;;;9.65;;
69629;SDS011;56857;52.212;5.496;2024-01-27T08:26:18;17.90;;;9.30;;
69629;SDS011;56857;52.212;5.496;2024-01-27T08:28:43;25.05;;;10.25;;
69629;SDS011;56857;52.212;5.496;2024-01-27T08:31:09;19.08;;;9.93;;
69629;SDS011;56857;52.212;5.496;2024-01-27T08:33:36;19.90;;;9.20;;
69629;SDS011;56857;52.212;5.496;2024-01-27T08:36:01;22.15;;;10.05;;
69629;SDS011;56857;52.212;5.496;2024-01-27T08:38:27;18.05;;;8.55;;
69629;SDS011;56857;52.212;5.496;2024-01-27T08:40:52;20.75;;;9.43;;
69629;SDS011;56857;52.212;5.496;2024-01-27T08:43:18;16.23;;;9.52;;
69629;SDS011;56857;52.212;5.496;2024-01-27T08:45:43;27.67;;;10.18;;
69629;SDS011;56857;52.212;5.496;2024-01-27T08:48:09;20.33;;;9.02;;
69629;SDS011;56857;52.212;5.496;2024-01-27T08:50:34;20.65;;;8.77;;
69629;SDS011;56857;52.212;5.496;2024-01-27T08:53:00;18.90;;;10.33;;
69629;SDS011;56857;52.212;5.496;2024-01-27T08:55:25;21.33;;;8.95;;
69629;SDS011;56857;52.212;5.496;2024-01-27T08:57:50;18.97;;;8.33;;
69629;SDS011;56857;52.212;5.496;2024-01-27T09:00:16;18.85;;;9.48;;
69629;SDS011;56857;52.212;5.496;2024-01-27T09:02:44;17.50;;;9.48;;
69629;SDS011;56857;52.212;5.496;2024-01-27T09:05:09;18.25;;;9.02;;
69629;SDS011;56857;52.212;5.496;2024-01-27T09:07:35;20.30;;;8.45;;
69629;SDS011;56857;52.212;5.496;2024-01-27T09:10:00;20.27;;;9.00;;
69629;SDS011;56857;52.212;5.496;2024-01-27T09:12:26;19.30;;;8.82;;
69629;SDS011;56857;52.212;5.496;2024-01-27T09:14:52;21.98;;;8.30;;
69629;SDS011;56857;52.212;5.496;2024-01-27T09:17:17;18.25;;;8.35;;
69629;SDS011;56857;52.212;5.496;2024-01-27T09:19:42;18.77;;;8.38;;
69629;SDS011;56857;52.212;5.496;2024-01-27T09:22:08;15.70;;;8.80;;
69629;SDS011;56857;52.212;5.496;2024-01-27T09:24:33;19.00;;;9.25;;
69629;SDS011;56857;52.212;5.496;2024-01-27T09:26:58;18.20;;;7.87;;
69629;SDS011;56857;52.212;5.496;2024-01-27T09:29:23;20.50;;;9.38;;
69629;SDS011;56857;52.212;5.496;2024-01-27T09:31:49;17.87;;;8.50;;
69629;SDS011;56857;52.212;5.496;2024-01-27T09:34:14;19.95;;;9.98;;
69629;SDS011;56857;52.212;5.496;2024-01-27T09:36:39;19.43;;;8.77;;
69629;SDS011;56857;52.212;5.496;2024-01-27T09:39:05;23.75;;;8.63;;
69629;SDS011;56857;52.212;5.496;2024-01-27T09:41:30;22.07;;;9.43;;
69629;SDS011;56857;52.212;5.496;2024-01-27T09:43:56;19.23;;;8.52;;
69629;SDS011;56857;52.212;5.496;2024-01-27T09:46:26;20.23;;;8.77;;
69629;SDS011;56857;52.212;5.496;2024-01-27T09:48:52;14.85;;;7.05;;
69629;SDS011;56857;52.212;5.496;2024-01-27T09:51:17;17.38;;;8.02;;
69629;SDS011;56857;52.212;5.496;2024-01-27T09:53:42;17.40;;;6.93;;
69629;SDS011;56857;52.212;5.496;2024-01-27T09:56:08;15.87;;;6.73;;
69629;SDS011;56857;52.212;5.496;2024-01-27T09:58:34;19.30;;;7.70;;
69629;SDS011;56857;52.212;5.496;2024-01-27T10:00:59;15.40;;;6.88;;
69629;SDS011;56857;52.212;5.496;2024-01-27T10:03:26;19.25;;;7.43;;
69629;SDS011;56857;52.212;5.496;2024-01-27T10:05:53;18.27;;;7.15;;
69629;SDS011;56857;52.212;5.496;2024-01-27T10:08:20;24.73;;;9.27;;
69629;SDS011;56857;52.212;5.496;2024-01-27T10:10:46;20.58;;;8.52;;
69629;SDS011;56857;52.212;5.496;2024-01-27T10:13:12;16.30;;;7.50;;
69629;SDS011;56857;52.212;5.496;2024-01-27T10:15:40;18.92;;;7.13;;
69629;SDS011;56857;52.212;5.496;2024-01-27T10:18:06;17.35;;;7.72;;
69629;SDS011;56857;52.212;5.496;2024-01-27T10:20:32;19.08;;;8.02;;
69629;SDS011;56857;52.212;5.496;2024-01-27T10:22:57;19.38;;;6.95;;
69629;SDS011;56857;52.212;5.496;2024-01-27T10:25:22;18.65;;;6.63;;
69629;SDS011;56857;52.212;5.496;2024-01-27T10:27:48;21.40;;;7.43;;
69629;SDS011;56857;52.212;5.496;2024-01-27T10:30:16;14.18;;;6.57;;
69629;SDS011;56857;52.212;5.496;2024-01-27T10:32:42;17.92;;;7.72;;
69629;SDS011;56857;52.212;5.496;2024-01-27T10:35:08;17.10;;;6.53;;
69629;SDS011;56857;52.212;5.496;2024-01-27T10:37:34;19.67;;;7.45;;
69629;SDS011;56857;52.212;5.496;2024-01-27T10:40:06;19.00;;;6.88;;
69629;SDS011;56857;52.212;5.496;2024-01-27T10:42:32;19.90;;;6.63;;
69629;SDS011;56857;52.212;5.496;2024-01-27T10:45:00;20.05;;;6.90;;
69629;SDS011;56857;52.212;5.496;2024-01-27T10:47:29;16.55;;;6.82;;
69629;SDS011;56857;52.212;5.496;2024-01-27T10:49:56;16.75;;;6.85;;
69629;SDS011;56857;52.212;5.496;2024-01-27T10:52:22;18.38;;;6.68;;
69629;SDS011;56857;52.212;5.496;2024-01-27T10:54:49;16.63;;;7.80;;
69629;SDS011;56857;52.212;5.496;2024-01-27T10:57:16;16.88;;;7.55;;
69629;SDS011;56857;52.212;5.496;2024-01-27T10:59:45;18.98;;;7.15;;
69629;SDS011;56857;52.212;5.496;2024-01-27T11:02:12;19.40;;;7.05;;
69629;SDS011;56857;52.212;5.496;2024-01-27T11:04:40;19.90;;;7.10;;
69629;SDS011;56857;52.212;5.496;2024-01-27T11:07:07;17.88;;;7.05;;
69629;SDS011;56857;52.212;5.496;2024-01-27T11:09:34;21.98;;;7.35;;
69629;SDS011;56857;52.212;5.496;2024-01-27T11:12:00;20.45;;;6.55;;
69629;SDS011;56857;52.212;5.496;2024-01-27T11:14:27;19.27;;;7.28;;
69629;SDS011;56857;52.212;5.496;2024-01-27T11:16:56;20.92;;;7.60;;
69629;SDS011;56857;52.212;5.496;2024-01-27T11:19:22;15.70;;;6.30;;
69629;SDS011;56857;52.212;5.496;2024-01-27T11:21:58;20.02;;;6.45;;
69629;SDS011;56857;52.212;5.496;2024-01-27T11:24:27;21.33;;;6.28;;
69629;SDS011;56857;52.212;5.496;2024-01-27T11:27:02;17.60;;;6.18;;
69629;SDS011;56857;52.212;5.496;2024-01-27T11:29:29;23.35;;;7.75;;
69629;SDS011;56857;52.212;5.496;2024-01-27T11:31:54;14.88;;;6.35;;
69629;SDS011;56857;52.212;5.496;2024-01-27T11:34:20;17.55;;;6.93;;
69629;SDS011;56857;52.212;5.496;2024-01-27T11:36:45;15.75;;;5.55;;
69629;SDS011;56857;52.212;5.496;2024-01-27T11:39:23;21.42;;;6.63;;
69629;SDS011;56857;52.212;5.496;2024-01-27T11:41:49;16.90;;;6.20;;
69629;SDS011;56857;52.212;5.496;2024-01-27T11:44:14;18.23;;;6.18;;
69629;SDS011;56857;52.212;5.496;2024-01-27T11:46:40;17.00;;;6.00;;
69629;SDS011;56857;52.212;5.496;2024-01-27T11:49:06;18.80;;;6.38;;
69629;SDS011;56857;52.212;5.496;2024-01-27T11:51:31;17.02;;;5.60;;
69629;SDS011;56857;52.212;5.496;2024-01-27T11:53:57;15.68;;;6.57;;
69629;SDS011;56857;52.212;5.496;2024-01-27T11:56:22;22.55;;;7.93;;
69629;SDS011;56857;52.212;5.496;2024-01-27T11:58:48;15.52;;;5.07;;
69629;SDS011;56857;52.212;5.496;2024-01-27T12:01:14;18.58;;;5.32;;
69629;SDS011;56857;52.212;5.496;2024-01-27T12:03:40;13.90;;;4.68;;
69629;SDS011;56857;52.212;5.496;2024-01-27T12:06:07;16.50;;;5.82;;
69629;SDS011;56857;52.212;5.496;2024-01-27T12:08:34;13.43;;;5.28;;
69629;SDS011;56857;52.212;5.496;2024-01-27T12:11:00;16.98;;;5.70;;
69629;SDS011;56857;52.212;5.496;2024-01-27T12:13:26;14.98;;;5.40;;
69629;SDS011;56857;52.212;5.496;2024-01-27T12:15:51;16.25;;;5.28;;
69629;SDS011;56857;52.212;5.496;2024-01-27T12:18:17;31.40;;;15.32;;
69629;SDS011;56857;52.212;5.496;2024-01-27T12:20:42;24.42;;;9.80;;
69629;SDS011;56857;52.212;5.496;2024-01-27T12:23:07;19.17;;;7.22;;
69629;SDS011;56857;52.212;5.496;2024-01-27T12:25:33;14.73;;;5.40;;
69629;SDS011;56857;52.212;5.496;2024-01-27T12:28:02;16.25;;;5.45;;
69629;SDS011;56857;52.212;5.496;2024-01-27T12:30:28;21.20;;;5.82;;
69629;SDS011;56857;52.212;5.496;2024-01-27T12:32:53;16.57;;;5.37;;
69629;SDS011;56857;52.212;5.496;2024-01-27T12:35:19;17.35;;;5.05;;
69629;SDS011;56857;52.212;5.496;2024-01-27T12:37:44;12.13;;;5.22;;
69629;SDS011;56857;52.212;5.496;2024-01-27T12:40:22;18.77;;;5.55;;
69629;SDS011;56857;52.212;5.496;2024-01-27T12:42:48;15.40;;;4.88;;
69629;SDS011;56857;52.212;5.496;2024-01-27T12:45:14;13.05;;;5.10;;
69629;SDS011;56857;52.212;5.496;2024-01-27T12:47:39;16.08;;;4.90;;
69629;SDS011;56857;52.212;5.496;2024-01-27T12:50:05;15.75;;;5.35;;
69629;SDS011;56857;52.212;5.496;2024-01-27T12:52:31;19.33;;;5.03;;
69629;SDS011;56857;52.212;5.496;2024-01-27T12:54:57;17.95;;;4.82;;
69629;SDS011;56857;52.212;5.496;2024-01-27T12:57:22;16.05;;;4.57;;
69629;SDS011;56857;52.212;5.496;2024-01-27T12:59:47;16.85;;;4.95;;
69629;SDS011;56857;52.212;5.496;2024-01-27T13:02:13;11.32;;;4.25;;
69629;SDS011;56857;52.212;5.496;2024-01-27T13:04:38;18.67;;;4.57;;
69629;SDS011;56857;52.212;5.496;2024-01-27T13:07:03;12.23;;;4.63;;
69629;SDS011;56857;52.212;5.496;2024-01-27T13:09:29;16.35;;;5.20;;
69629;SDS011;56857;52.212;5.496;2024-01-27T13:11:54;17.13;;;4.18;;
69629;SDS011;56857;52.212;5.496;2024-01-27T13:14:19;17.08;;;5.30;;
69629;SDS011;56857;52.212;5.496;2024-01-27T13:16:46;10.40;;;3.92;;
69629;SDS011;56857;52.212;5.496;2024-01-27T13:19:11;15.00;;;5.35;;
69629;SDS011;56857;52.212;5.496;2024-01-27T13:21:37;15.35;;;3.97;;
69629;SDS011;56857;52.212;5.496;2024-01-27T13:24:03;17.80;;;4.45;;
69629;SDS011;56857;52.212;5.496;2024-01-27T13:26:28;12.88;;;4.03;;
69629;SDS011;56857;52.212;5.496;2024-01-27T13:28:54;12.98;;;4.13;;
69629;SDS011;56857;52.212;5.496;2024-01-27T13:31:19;12.37;;;4.30;;
69629;SDS011;56857;52.212;5.496;2024-01-27T13:33:44;15.02;;;4.13;;
69629;SDS011;56857;52.212;5.496;2024-01-27T13:36:10;14.53;;;4.00;;
69629;SDS011;56857;52.212;5.496;2024-01-27T13:38:35;12.63;;;3.95;;
69629;SDS011;56857;52.212;5.496;2024-01-27T13:41:01;15.38;;;4.65;;
69629;SDS011;56857;52.212;5.496;2024-01-27T13:43:26;14.27;;;4.30;;
69629;SDS011;56857;52.212;5.496;2024-01-27T13:45:52;15.00;;;4.07;;
69629;SDS011;56857;52.212;5.496;2024-01-27T13:48:17;14.85;;;5.18;;
69629;SDS011;56857;52.212;5.496;2024-01-27T13:50:42;17.25;;;3.75;;
69629;SDS011;56857;52.212;5.496;2024-01-27T13:53:08;13.15;;;4.90;;
69629;SDS011;56857;52.212;5.496;2024-01-27T13:55:33;12.93;;;4.07;;
69629;SDS011;56857;52.212;5.496;2024-01-27T13:57:58;15.65;;;3.85;;
69629;SDS011;56857;52.212;5.496;2024-01-27T14:00:24;17.65;;;4.57;;
69629;SDS011;56857;52.212;5.496;2024-01-27T14:02:49;13.95;;;4.28;;
69629;SDS011;56857;52.212;5.496;2024-01-27T14:05:14;13.77;;;4.00;;
69629;SDS011;56857;52.212;5.496;2024-01-27T14:07:40;13.23;;;4.00;;
69629;SDS011;56857;52.212;5.496;2024-01-27T14:10:06;17.33;;;4.28;;
69629;SDS011;56857;52.212;5.496;2024-01-27T14:12:31;16.48;;;3.85;;
69629;SDS011;56857;52.212;5.496;2024-01-27T14:15:05;12.45;;;3.60;;
69629;SDS011;56857;52.212;5.496;2024-01-27T14:17:31;11.15;;;4.28;;
69629;SDS011;56857;52.212;5.496;2024-01-27T14:19:56;17.07;;;4.93;;
69629;SDS011;56857;52.212;5.496;2024-01-27T14:22:22;19.40;;;5.38;;
69629;SDS011;56857;52.212;5.496;2024-01-27T14:24:48;11.63;;;4.53;;
69629;SDS011;56857;52.212;5.496;2024-01-27T14:27:13;16.15;;;5.30;;
69629;SDS011;56857;52.212;5.496;2024-01-27T14:29:39;15.10;;;4.50;;
69629;SDS011;56857;52.212;5.496;2024-01-27T14:32:04;17.10;;;4.63;;
69629;SDS011;56857;52.212;5.496;2024-01-27T14:34:30;17.52;;;4.68;;
69629;SDS011;56857;52.212;5.496;2024-01-27T14:36:55;17.75;;;4.78;;
69629;SDS011;56857;52.212;5.496;2024-01-27T14:39:21;14.80;;;4.90;;
69629;SDS011;56857;52.212;5.496;2024-01-27T14:41:47;16.08;;;4.65;;
69629;SDS011;56857;52.212;5.496;2024-01-27T14:44:12;18.15;;;4.63;;